sensor_id;sensor_type;location;lat;lon;timestamp;pressure;altitude;pressure_sealevel;temperature;humidity
6347;BME280;3206;42.666;23.600;2022-08-03T00:01:03;95220.06;;;17.71;100.00
6347;BME280;3206;42.666;23.600;2022-08-03T00:03:30;95230.50;;;17.76;100.00
6347;BME280;3206;42.666;23.600;2022-08-03T00:05:58;95222.38;;;17.76;100.00
6347;BME280;3206;42.666;23.600;2022-08-03T00:08:25;95235.50;;;17.77;100.00
6347;BME280;3206;42.666;23.600;2022-08-03T00:10:51;95228.56;;;17.73;100.00
6347;BME280;3206;42.666;23.600;2022-08-03T00:13:18;95231.19;;;17.59;100.00
6347;BME280;3206;42.666;23.600;2022-08-03T00:15:45;95229.19;;;17.45;100.00
6347;BME280;3206;42.666;23.600;2022-08-03T00:18:12;95233.44;;;17.43;100.00
6347;BME280;3206;42.666;23.600;2022-08-03T00:20:38;95232.28;;;17.40;100.00
6347;BME280;3206;42.666;23.600;2022-08-03T00:23:06;95231.53;;;17.47;100.00
6347;BME280;3206;42.666;23.600;2022-08-03T00:25:33;95233.81;;;17.41;100.00
6347;BME280;3206;42.666;23.600;2022-08-03T00:28:00;95221.78;;;17.32;100.00
6347;BME280;3206;42.666;23.600;2022-08-03T00:30:27;95223.78;;;17.38;100.00
6347;BME280;3206;42.666;23.600;2022-08-03T00:32:54;95224.16;;;17.37;100.00
6347;BME280;3206;42.666;23.600;2022-08-03T00:35:21;95219.56;;;17.41;100.00
6347;BME280;3206;42.666;23.600;2022-08-03T00:37:48;95224.56;;;17.42;100.00
6347;BME280;3206;42.666;23.600;2022-08-03T00:40:17;95228.06;;;17.50;100.00
6347;BME280;3206;42.666;23.600;2022-08-03T00:42:49;95220.72;;;17.47;100.00
6347;BME280;3206;42.666;23.600;2022-08-03T00:45:16;95184.34;;;17.23;100.00
6347;BME280;3206;42.666;23.600;2022-08-03T00:47:44;95220.72;;;17.47;100.00
6347;BME280;3206;42.666;23.600;2022-08-03T00:50:11;95216.06;;;17.40;100.00
6347;BME280;3206;42.666;23.600;2022-08-03T00:52:38;95217.16;;;17.29;100.00
6347;BME280;3206;42.666;23.600;2022-08-03T00:55:05;95208.59;;;17.20;100.00
6347;BME280;3206;42.666;23.600;2022-08-03T00:57:33;95203.56;;;17.15;100.00
6347;BME280;3206;42.666;23.600;2022-08-03T01:00:00;95212.13;;;17.24;100.00
6347;BME280;3206;42.666;23.600;2022-08-03T01:02:27;95209.03;;;17.22;100.00
6347;BME280;3206;42.666;23.600;2022-08-03T01:04:54;95183.03;;;16.97;100.00
6347;BME280;3206;42.666;23.600;2022-08-03T01:07:26;95205.91;;;17.20;100.00
6347;BME280;3206;42.666;23.600;2022-08-03T01:10:00;95208.19;;;17.11;100.00
6347;BME280;3206;42.666;23.600;2022-08-03T01:12:35;95203.56;;;17.15;100.00
6347;BME280;3206;42.666;23.600;2022-08-03T01:15:09;95211.28;;;17.13;100.00
6347;BME280;3206;42.666;23.600;2022-08-03T01:17:42;95205.50;;;17.18;100.00
6347;BME280;3206;42.666;23.600;2022-08-03T01:20:13;95208.16;;;17.07;100.00
6347;BME280;3206;42.666;23.600;2022-08-03T01:25:49;95207.41;;;17.10;100.00
6347;BME280;3206;42.666;23.600;2022-08-03T01:28:44;95205.09;;;17.09;100.00
6347;BME280;3206;42.666;23.600;2022-08-03T01:31:19;95202.00;;;17.07;100.00
6347;BME280;3206;42.666;23.600;2022-08-03T01:33:51;95219.69;;;17.01;100.00
6347;BME280;3206;42.666;23.600;2022-08-03T01:36:22;95203.47;;;16.94;100.00
6347;BME280;3206;42.666;23.600;2022-08-03T01:38:52;95198.72;;;16.74;100.00
6347;BME280;3206;42.666;23.600;2022-08-03T01:41:24;95200.63;;;16.70;100.00
6347;BME280;3206;42.666;23.600;2022-08-03T01:43:56;95202.22;;;16.81;100.00
6347;BME280;3206;42.666;23.600;2022-08-03T01:46:25;95192.59;;;16.80;100.00
6347;BME280;3206;42.666;23.600;2022-08-03T01:48:53;95196.47;;;16.83;100.00
6347;BME280;3206;42.666;23.600;2022-08-03T01:51:21;95197.91;;;16.70;100.00
6347;BME280;3206;42.666;23.600;2022-08-03T01:53:49;95199.09;;;16.76;100.00
6347;BME280;3206;42.666;23.600;2022-08-03T01:56:21;95207.97;;;16.76;100.00
6347;BME280;3206;42.666;23.600;2022-08-03T01:58:50;95197.19;;;16.76;100.00
6347;BME280;3206;42.666;23.600;2022-08-03T02:01:19;95201.03;;;16.75;100.00
6347;BME280;3206;42.666;23.600;2022-08-03T02:03:48;95199.44;;;16.67;100.00
6347;BME280;3206;42.666;23.600;2022-08-03T02:06:16;95178.47;;;16.43;100.00
6347;BME280;3206;42.666;23.600;2022-08-03T02:08:46;95203.06;;;16.38;100.00
6347;BME280;3206;42.666;23.600;2022-08-03T02:11:14;95208.56;;;16.49;100.00
6347;BME280;3206;42.666;23.600;2022-08-03T02:13:42;95204.28;;;16.44;100.00
6347;BME280;3206;42.666;23.600;2022-08-03T02:16:10;95204.31;;;16.48;100.00
6347;BME280;3206;42.666;23.600;2022-08-03T02:18:39;95194.72;;;16.54;100.00
6347;BME280;3206;42.666;23.600;2022-08-03T02:21:08;95200.09;;;16.50;100.00
6347;BME280;3206;42.666;23.600;2022-08-03T02:23:36;95199.69;;;16.48;100.00
6347;BME280;3206;42.666;23.600;2022-08-03T02:26:05;95178.38;;;16.33;100.00
6347;BME280;3206;42.666;23.600;2022-08-03T02:28:34;95200.09;;;16.50;100.00
6347;BME280;3206;42.666;23.600;2022-08-03T02:31:03;95198.19;;;16.54;100.00
6347;BME280;3206;42.666;23.600;2022-08-03T02:33:32;95198.38;;;16.32;100.00
6347;BME280;3206;42.666;23.600;2022-08-03T02:36:01;95199.81;;;16.22;100.00
6347;BME280;3206;42.666;23.600;2022-08-03T02:38:33;95197.72;;;16.42;100.00
6347;BME280;3206;42.666;23.600;2022-08-03T02:41:04;95202.34;;;16.41;100.00
6347;BME280;3206;42.666;23.600;2022-08-03T02:43:34;95207.78;;;16.48;100.00
6347;BME280;3206;42.666;23.600;2022-08-03T02:46:04;95199.09;;;16.25;100.00
6347;BME280;3206;42.666;23.600;2022-08-03T02:48:33;95199.97;;;16.36;100.00
6347;BME280;3206;42.666;23.600;2022-08-03T02:51:03;95204.09;;;16.27;100.00
6347;BME280;3206;42.666;23.600;2022-08-03T02:53:32;95203.13;;;16.05;100.00
6347;BME280;3206;42.666;23.600;2022-08-03T02:56:01;95208.03;;;15.93;100.00
6347;BME280;3206;42.666;23.600;2022-08-03T02:58:30;95208.56;;;15.72;100.00
6347;BME280;3206;42.666;23.600;2022-08-03T03:00:57;95214.00;;;15.76;100.00
6347;BME280;3206;42.666;23.600;2022-08-03T03:03:24;95218.34;;;15.87;100.00
6347;BME280;3206;42.666;23.600;2022-08-03T03:05:52;95217.66;;;15.94;100.00
6347;BME280;3206;42.666;23.600;2022-08-03T03:08:20;95216.09;;;15.93;100.00
6347;BME280;3206;42.666;23.600;2022-08-03T03:10:48;95211.13;;;15.95;100.00
6347;BME280;3206;42.666;23.600;2022-08-03T03:13:16;95214.09;;;15.86;100.00
6347;BME280;3206;42.666;23.600;2022-08-03T03:15:46;95215.25;;;15.85;100.00
6347;BME280;3206;42.666;23.600;2022-08-03T03:18:13;95216.75;;;15.79;100.00
6347;BME280;3206;42.666;23.600;2022-08-03T03:20:42;95217.28;;;15.95;100.00
6347;BME280;3206;42.666;23.600;2022-08-03T03:23:10;95222.94;;;15.83;100.00
6347;BME280;3206;42.666;23.600;2022-08-03T03:25:38;95221.75;;;15.81;100.00
6347;BME280;3206;42.666;23.600;2022-08-03T03:28:09;95231.47;;;15.56;100.00
6347;BME280;3206;42.666;23.600;2022-08-03T03:30:37;95228.44;;;15.57;100.00
6347;BME280;3206;42.666;23.600;2022-08-03T03:33:04;95226.75;;;15.46;100.00
6347;BME280;3206;42.666;23.600;2022-08-03T03:35:31;95222.94;;;15.50;100.00
6347;BME280;3206;42.666;23.600;2022-08-03T03:37:58;95228.16;;;15.36;100.00
6347;BME280;3206;42.666;23.600;2022-08-03T03:40:26;95229.19;;;15.28;100.00
6347;BME280;3206;42.666;23.600;2022-08-03T03:42:53;95228.59;;;15.12;100.00
6347;BME280;3206;42.666;23.600;2022-08-03T03:45:23;95227.34;;;15.32;100.00
6347;BME280;3206;42.666;23.600;2022-08-03T03:47:50;95218.31;;;15.18;100.00
6347;BME280;3206;42.666;23.600;2022-08-03T03:50:17;95214.81;;;15.43;100.00
6347;BME280;3206;42.666;23.600;2022-08-03T03:52:44;95230.00;;;15.62;100.00
6347;BME280;3206;42.666;23.600;2022-08-03T03:55:14;95232.09;;;15.75;100.00
6347;BME280;3206;42.666;23.600;2022-08-03T03:57:41;95237.06;;;15.73;100.00
6347;BME280;3206;42.666;23.600;2022-08-03T04:00:09;95245.69;;;15.89;100.00
6347;BME280;3206;42.666;23.600;2022-08-03T04:02:37;95233.44;;;15.95;100.00
6347;BME280;3206;42.666;23.600;2022-08-03T04:05:05;95247.25;;;15.90;100.00
6347;BME280;3206;42.666;23.600;2022-08-03T04:07:55;95239.50;;;15.85;100.00
6347;BME280;3206;42.666;23.600;2022-08-03T04:10:41;95238.28;;;15.79;100.00
6347;BME280;3206;42.666;23.600;2022-08-03T04:13:26;95245.56;;;15.79;100.00
6347;BME280;3206;42.666;23.600;2022-08-03T04:15:56;95225.59;;;15.80;100.00
6347;BME280;3206;42.666;23.600;2022-08-03T04:18:26;95253.38;;;15.87;100.00
6347;BME280;3206;42.666;23.600;2022-08-03T04:20:54;95257.19;;;15.83;100.00
6347;BME280;3206;42.666;23.600;2022-08-03T04:23:23;95253.38;;;15.87;100.00
6347;BME280;3206;42.666;23.600;2022-08-03T04:25:52;95256.56;;;15.96;100.00
6347;BME280;3206;42.666;23.600;2022-08-03T04:28:21;95260.84;;;16.04;100.00
6347;BME280;3206;42.666;23.600;2022-08-03T04:30:52;95250.56;;;16.13;100.00
6347;BME280;3206;42.666;23.600;2022-08-03T04:33:20;95256.09;;;16.27;100.00
6347;BME280;3206;42.666;23.600;2022-08-03T04:35:53;95261.72;;;16.52;100.00
6347;BME280;3206;42.666;23.600;2022-08-03T04:38:23;95260.22;;;16.58;100.00
6347;BME280;3206;42.666;23.600;2022-08-03T04:40:51;95275.41;;;16.76;100.00
6347;BME280;3206;42.666;23.600;2022-08-03T04:43:20;95253.38;;;16.67;100.00
6347;BME280;3206;42.666;23.600;2022-08-03T04:45:48;95269.72;;;16.88;100.00
6347;BME280;3206;42.666;23.600;2022-08-03T04:48:17;95272.84;;;16.90;100.00
6347;BME280;3206;42.666;23.600;2022-08-03T04:50:45;95274.47;;;17.05;100.00
6347;BME280;3206;42.666;23.600;2022-08-03T04:53:15;95272.25;;;17.17;100.00
6347;BME280;3206;42.666;23.600;2022-08-03T04:55:42;95285.41;;;17.26;100.00
6347;BME280;3206;42.666;23.600;2022-08-03T04:58:09;95287.78;;;17.34;100.00
6347;BME280;3206;42.666;23.600;2022-08-03T05:00:37;95270.03;;;17.37;100.00
6347;BME280;3206;42.666;23.600;2022-08-03T05:03:03;95289.88;;;17.69;100.00
6347;BME280;3206;42.666;23.600;2022-08-03T05:05:30;95293.06;;;17.88;100.00
6347;BME280;3206;42.666;23.600;2022-08-03T05:07:57;95288.47;;;18.03;100.00
6347;BME280;3206;42.666;23.600;2022-08-03T05:10:25;95295.13;;;18.30;100.00
6347;BME280;3206;42.666;23.600;2022-08-03T05:12:52;95291.28;;;18.31;100.00
6347;BME280;3206;42.666;23.600;2022-08-03T05:15:19;95296.63;;;18.17;100.00
6347;BME280;3206;42.666;23.600;2022-08-03T05:17:45;95287.03;;;18.33;100.00
6347;BME280;3206;42.666;23.600;2022-08-03T05:20:13;95299.03;;;18.60;100.00
6347;BME280;3206;42.666;23.600;2022-08-03T05:22:40;95292.09;;;18.63;100.00
6347;BME280;3206;42.666;23.600;2022-08-03T05:25:07;95288.25;;;18.78;100.00
6347;BME280;3206;42.666;23.600;2022-08-03T05:27:35;95297.13;;;18.96;100.00
6347;BME280;3206;42.666;23.600;2022-08-03T05:30:03;95296.75;;;18.97;100.00
6347;BME280;3206;42.666;23.600;2022-08-03T05:32:30;95298.69;;;19.00;100.00
6347;BME280;3206;42.666;23.600;2022-08-03T05:34:56;95292.84;;;19.01;100.00
6347;BME280;3206;42.666;23.600;2022-08-03T05:37:23;95296.34;;;19.05;100.00
6347;BME280;3206;42.666;23.600;2022-08-03T05:39:50;95303.69;;;19.33;100.00
6347;BME280;3206;42.666;23.600;2022-08-03T05:42:17;95308.34;;;19.39;100.00
6347;BME280;3206;42.666;23.600;2022-08-03T05:44:45;95312.19;;;19.52;100.00
6347;BME280;3206;42.666;23.600;2022-08-03T05:47:11;95310.56;;;19.69;100.00
6347;BME280;3206;42.666;23.600;2022-08-03T05:49:38;95305.94;;;19.69;100.00
6347;BME280;3206;42.666;23.600;2022-08-03T05:52:05;95318.75;;;19.58;100.00
6347;BME280;3206;42.666;23.600;2022-08-03T05:54:32;95315.13;;;19.96;100.00
6347;BME280;3206;42.666;23.600;2022-08-03T05:56:58;95324.34;;;20.16;100.00
6347;BME280;3206;42.666;23.600;2022-08-03T05:59:25;95322.72;;;20.36;100.00
6347;BME280;3206;42.666;23.600;2022-08-03T06:01:53;95322.06;;;20.11;100.00
6347;BME280;3206;42.666;23.600;2022-08-03T06:04:20;95329.03;;;20.09;100.00
6347;BME280;3206;42.666;23.600;2022-08-03T06:06:47;95328.09;;;20.43;100.00
6347;BME280;3206;42.666;23.600;2022-08-03T06:09:15;95337.25;;;21.68;100.00
6347;BME280;3206;42.666;23.600;2022-08-03T06:11:41;95333.53;;;21.89;100.00
6347;BME280;3206;42.666;23.600;2022-08-03T06:14:08;95330.31;;;22.01;100.00
6347;BME280;3206;42.666;23.600;2022-08-03T06:16:35;95334.25;;;22.26;100.00
6347;BME280;3206;42.666;23.600;2022-08-03T06:19:03;95307.28;;;22.39;100.00
6347;BME280;3206;42.666;23.600;2022-08-03T06:21:30;95332.63;;;22.89;100.00
6347;BME280;3206;42.666;23.600;2022-08-03T06:23:56;95329.88;;;23.18;100.00
6347;BME280;3206;42.666;23.600;2022-08-03T06:26:24;95325.03;;;22.77;100.00
6347;BME280;3206;42.666;23.600;2022-08-03T06:28:52;95335.72;;;22.91;100.00
6347;BME280;3206;42.666;23.600;2022-08-03T06:31:19;95332.94;;;22.94;100.00
6347;BME280;3206;42.666;23.600;2022-08-03T06:33:47;95335.91;;;23.03;100.00
6347;BME280;3206;42.666;23.600;2022-08-03T06:36:15;95329.75;;;22.99;100.00
6347;BME280;3206;42.666;23.600;2022-08-03T06:38:41;95329.34;;;23.01;100.00
6347;BME280;3206;42.666;23.600;2022-08-03T06:41:08;95327.50;;;23.20;100.00
6347;BME280;3206;42.666;23.600;2022-08-03T06:43:35;95329.03;;;23.21;100.00
6347;BME280;3206;42.666;23.600;2022-08-03T06:46:02;95328.41;;;23.10;100.00
6347;BME280;3206;42.666;23.600;2022-08-03T06:48:30;95314.41;;;23.08;100.00
6347;BME280;3206;42.666;23.600;2022-08-03T06:50:57;95317.72;;;22.97;100.00
6347;BME280;3206;42.666;23.600;2022-08-03T06:53:25;95294.00;;;22.71;100.00
6347;BME280;3206;42.666;23.600;2022-08-03T06:55:51;95319.47;;;23.10;100.00
6347;BME280;3206;42.666;23.600;2022-08-03T06:58:18;95325.94;;;23.42;100.00
6347;BME280;3206;42.666;23.600;2022-08-03T07:00:45;95323.69;;;23.60;100.00
6347;BME280;3206;42.666;23.600;2022-08-03T07:03:12;95310.53;;;23.55;100.00
6347;BME280;3206;42.666;23.600;2022-08-03T07:05:40;95321.88;;;23.73;100.00
6347;BME280;3206;42.666;23.600;2022-08-03T07:08:07;95309.44;;;23.72;100.00
6347;BME280;3206;42.666;23.600;2022-08-03T07:10:42;95320.06;;;23.90;100.00
6347;BME280;3206;42.666;23.600;2022-08-03T07:13:10;95321.94;;;23.93;100.00
6347;BME280;3206;42.666;23.600;2022-08-03T07:15:37;95324.53;;;24.00;100.00
6347;BME280;3206;42.666;23.600;2022-08-03T07:18:04;95320.25;;;24.18;100.00
6347;BME280;3206;42.666;23.600;2022-08-03T07:20:32;95320.78;;;24.29;100.00
6347;BME280;3206;42.666;23.600;2022-08-03T07:22:58;95327.81;;;24.30;100.00
6347;BME280;3206;42.666;23.600;2022-08-03T07:25:25;95315.19;;;24.36;100.00
6347;BME280;3206;42.666;23.600;2022-08-03T07:27:53;95326.81;;;24.40;100.00
6347;BME280;3206;42.666;23.600;2022-08-03T07:30:20;95322.47;;;24.62;100.00
6347;BME280;3206;42.666;23.600;2022-08-03T07:32:46;95320.72;;;24.72;100.00
6347;BME280;3206;42.666;23.600;2022-08-03T07:35:13;95312.06;;;24.73;100.00
6347;BME280;3206;42.666;23.600;2022-08-03T07:37:40;95316.88;;;24.85;100.00
6347;BME280;3206;42.666;23.600;2022-08-03T07:40:07;95318.94;;;24.97;100.00
6347;BME280;3206;42.666;23.600;2022-08-03T07:42:34;95318.50;;;24.99;100.00
6347;BME280;3206;42.666;23.600;2022-08-03T07:45:02;95320.56;;;25.10;100.00
6347;BME280;3206;42.666;23.600;2022-08-03T07:47:29;95323.06;;;25.37;100.00
6347;BME280;3206;42.666;23.600;2022-08-03T07:49:56;95313.84;;;25.31;100.00
6347;BME280;3206;42.666;23.600;2022-08-03T07:52:23;95322.09;;;25.59;100.00
6347;BME280;3206;42.666;23.600;2022-08-03T07:55:08;95322.84;;;25.76;100.00
6347;BME280;3206;42.666;23.600;2022-08-03T07:57:35;95305.75;;;25.72;100.00
6347;BME280;3206;42.666;23.600;2022-08-03T08:00:06;95306.41;;;25.76;100.00
6347;BME280;3206;42.666;23.600;2022-08-03T08:02:34;95319.72;;;26.06;100.00
6347;BME280;3206;42.666;23.600;2022-08-03T08:05:01;95312.69;;;26.05;100.00
6347;BME280;3206;42.666;23.600;2022-08-03T08:07:27;95319.88;;;26.27;100.00
6347;BME280;3206;42.666;23.600;2022-08-03T08:09:54;95320.22;;;26.42;99.95
6347;BME280;3206;42.666;23.600;2022-08-03T08:12:21;95291.19;;;26.32;98.36
6347;BME280;3206;42.666;23.600;2022-08-03T08:14:47;95320.41;;;26.63;94.23
6347;BME280;3206;42.666;23.600;2022-08-03T08:17:15;95329.53;;;26.73;93.08
6347;BME280;3206;42.666;23.600;2022-08-03T08:19:43;95335.88;;;26.57;80.83
6347;BME280;3206;42.666;23.600;2022-08-03T08:22:10;95328.06;;;26.56;87.61
6347;BME280;3206;42.666;23.600;2022-08-03T08:24:37;95321.84;;;26.68;88.02
6347;BME280;3206;42.666;23.600;2022-08-03T08:27:03;95322.72;;;26.90;86.72
6347;BME280;3206;42.666;23.600;2022-08-03T08:29:30;95316.50;;;27.02;82.09
6347;BME280;3206;42.666;23.600;2022-08-03T08:31:57;95315.03;;;27.09;83.41
6347;BME280;3206;42.666;23.600;2022-08-03T08:34:25;95319.47;;;27.19;86.74
6347;BME280;3206;42.666;23.600;2022-08-03T08:36:51;95316.94;;;27.25;84.50
6347;BME280;3206;42.666;23.600;2022-08-03T08:39:18;95315.94;;;27.07;81.05
6347;BME280;3206;42.666;23.600;2022-08-03T08:41:45;95322.97;;;26.95;85.37
6347;BME280;3206;42.666;23.600;2022-08-03T08:44:11;95309.16;;;26.99;82.96
6347;BME280;3206;42.666;23.600;2022-08-03T08:46:38;95303.44;;;27.30;82.15
6347;BME280;3206;42.666;23.600;2022-08-03T08:49:07;95306.69;;;27.50;81.60
6347;BME280;3206;42.666;23.600;2022-08-03T08:51:39;95314.84;;;27.88;77.93
6347;BME280;3206;42.666;23.600;2022-08-03T08:54:06;95318.00;;;28.72;72.65
6347;BME280;3206;42.666;23.600;2022-08-03T08:56:34;95309.84;;;29.96;64.04
6347;BME280;3206;42.666;23.600;2022-08-03T08:59:03;95297.41;;;31.69;58.02
6347;BME280;3206;42.666;23.600;2022-08-03T09:01:30;95304.03;;;32.91;51.72
6347;BME280;3206;42.666;23.600;2022-08-03T09:03:56;95299.09;;;32.14;51.82
6347;BME280;3206;42.666;23.600;2022-08-03T09:06:23;95301.66;;;31.24;52.82
6347;BME280;3206;42.666;23.600;2022-08-03T09:08:51;95301.53;;;32.64;50.53
6347;BME280;3206;42.666;23.600;2022-08-03T09:11:21;95287.59;;;34.11;47.65
6347;BME280;3206;42.666;23.600;2022-08-03T09:13:48;95291.97;;;33.23;48.91
6347;BME280;3206;42.666;23.600;2022-08-03T09:16:16;95293.06;;;33.65;47.19
6347;BME280;3206;42.666;23.600;2022-08-03T09:18:48;95296.47;;;32.48;48.75
6347;BME280;3206;42.666;23.600;2022-08-03T09:21:18;95299.78;;;32.23;50.90
6347;BME280;3206;42.666;23.600;2022-08-03T09:23:46;95299.91;;;33.50;48.13
6347;BME280;3206;42.666;23.600;2022-08-03T09:26:21;95299.50;;;33.37;48.03
6347;BME280;3206;42.666;23.600;2022-08-03T09:28:59;95300.41;;;32.56;48.89
6347;BME280;3206;42.666;23.600;2022-08-03T09:31:30;95297.94;;;32.20;50.77
6347;BME280;3206;42.666;23.600;2022-08-03T09:33:59;95298.31;;;32.13;50.21
6347;BME280;3206;42.666;23.600;2022-08-03T09:36:33;95298.50;;;31.39;52.24
6347;BME280;3206;42.666;23.600;2022-08-03T09:39:01;95295.88;;;31.13;51.58
6347;BME280;3206;42.666;23.600;2022-08-03T09:41:31;95293.63;;;30.43;53.26
6347;BME280;3206;42.666;23.600;2022-08-03T09:43:58;95297.31;;;30.22;54.40
6347;BME280;3206;42.666;23.600;2022-08-03T09:46:25;95302.81;;;30.58;55.07
6347;BME280;3206;42.666;23.600;2022-08-03T09:49:08;95291.41;;;30.56;53.71
6347;BME280;3206;42.666;23.600;2022-08-03T09:51:35;95292.94;;;30.75;53.42
6347;BME280;3206;42.666;23.600;2022-08-03T09:54:03;95298.50;;;30.48;54.94
6347;BME280;3206;42.666;23.600;2022-08-03T09:56:41;95294.53;;;30.40;55.59
6347;BME280;3206;42.666;23.600;2022-08-03T09:59:09;95290.84;;;30.34;55.92
6347;BME280;3206;42.666;23.600;2022-08-03T10:01:37;95293.28;;;30.50;56.84
6347;BME280;3206;42.666;23.600;2022-08-03T10:04:10;95292.78;;;31.43;53.41
6347;BME280;3206;42.666;23.600;2022-08-03T10:06:38;95287.88;;;31.47;53.37
6347;BME280;3206;42.666;23.600;2022-08-03T10:09:06;95287.09;;;31.46;52.53
6347;BME280;3206;42.666;23.600;2022-08-03T10:11:39;95284.19;;;31.73;52.90
6347;BME280;3206;42.666;23.600;2022-08-03T10:14:08;95285.88;;;32.18;50.75
6347;BME280;3206;42.666;23.600;2022-08-03T10:16:38;95287.88;;;32.61;49.06
6347;BME280;3206;42.666;23.600;2022-08-03T10:19:07;95289.06;;;33.32;47.92
6347;BME280;3206;42.666;23.600;2022-08-03T10:21:36;95283.97;;;35.68;44.00
6347;BME280;3206;42.666;23.600;2022-08-03T10:24:05;95276.88;;;36.20;41.47
6347;BME280;3206;42.666;23.600;2022-08-03T10:26:37;95277.91;;;35.70;42.71
6347;BME280;3206;42.666;23.600;2022-08-03T10:29:09;95271.22;;;34.84;43.56
6347;BME280;3206;42.666;23.600;2022-08-03T10:31:38;95274.56;;;36.13;41.56
6347;BME280;3206;42.666;23.600;2022-08-03T10:34:10;95274.22;;;35.89;40.49
6347;BME280;3206;42.666;23.600;2022-08-03T10:36:41;95265.88;;;37.03;39.26
6347;BME280;3206;42.666;23.600;2022-08-03T10:39:09;95272.84;;;37.80;38.16
6347;BME280;3206;42.666;23.600;2022-08-03T10:41:40;95256.75;;;38.54;37.71
6347;BME280;3206;42.666;23.600;2022-08-03T10:44:14;95249.22;;;37.87;37.06
6347;BME280;3206;42.666;23.600;2022-08-03T10:46:44;95252.97;;;37.16;38.17
6347;BME280;3206;42.666;23.600;2022-08-03T10:49:12;95253.41;;;36.54;38.79
6347;BME280;3206;42.666;23.600;2022-08-03T10:51:40;95261.53;;;36.63;38.29
6347;BME280;3206;42.666;23.600;2022-08-03T10:54:39;95248.63;;;38.16;36.50
6347;BME280;3206;42.666;23.600;2022-08-03T10:57:42;95247.34;;;37.27;36.49
6347;BME280;3206;42.666;23.600;2022-08-03T11:00:11;95249.63;;;36.79;37.48
6347;BME280;3206;42.666;23.600;2022-08-03T11:03:00;95252.28;;;37.78;36.35
6347;BME280;3206;42.666;23.600;2022-08-03T11:05:28;95245.19;;;39.09;35.18
6347;BME280;3206;42.666;23.600;2022-08-03T11:08:21;95234.84;;;41.05;33.64
6347;BME280;3206;42.666;23.600;2022-08-03T11:10:49;95228.50;;;40.36;32.69
6347;BME280;3206;42.666;23.600;2022-08-03T11:13:18;95227.97;;;40.19;32.86
6347;BME280;3206;42.666;23.600;2022-08-03T11:15:48;95232.94;;;41.26;31.68
6347;BME280;3206;42.666;23.600;2022-08-03T11:18:15;95228.53;;;40.86;32.52
6347;BME280;3206;42.666;23.600;2022-08-03T11:20:46;95219.13;;;40.84;32.07
6347;BME280;3206;42.666;23.600;2022-08-03T11:23:14;95213.81;;;42.95;29.80
6347;BME280;3206;42.666;23.600;2022-08-03T11:26:09;95216.88;;;42.64;29.45
6347;BME280;3206;42.666;23.600;2022-08-03T11:28:36;95216.59;;;41.95;30.20
6347;BME280;3206;42.666;23.600;2022-08-03T11:31:46;95213.63;;;37.47;34.63
6347;BME280;3206;42.666;23.600;2022-08-03T11:34:15;95201.50;;;36.29;36.58
6347;BME280;3206;42.666;23.600;2022-08-03T11:37:20;95205.22;;;33.32;40.59
6347;BME280;3206;42.666;23.600;2022-08-03T11:39:53;95195.56;;;33.67;40.14
6347;BME280;3206;42.666;23.600;2022-08-03T11:42:40;95189.88;;;33.31;41.25
6347;BME280;3206;42.666;23.600;2022-08-03T11:45:08;95185.13;;;32.82;41.44
6347;BME280;3206;42.666;23.600;2022-08-03T11:47:40;95192.38;;;32.65;41.85
6347;BME280;3206;42.666;23.600;2022-08-03T11:50:09;95195.84;;;32.31;42.26
6347;BME280;3206;42.666;23.600;2022-08-03T11:52:38;95203.06;;;32.14;42.67
6347;BME280;3206;42.666;23.600;2022-08-03T11:55:12;95199.72;;;31.96;42.30
6347;BME280;3206;42.666;23.600;2022-08-03T11:57:39;95200.41;;;32.34;43.04
6347;BME280;3206;42.666;23.600;2022-08-03T12:00:27;95190.66;;;32.68;42.87
6347;BME280;3206;42.666;23.600;2022-08-03T12:02:58;95183.94;;;33.63;41.60
6347;BME280;3206;42.666;23.600;2022-08-03T12:05:40;95187.28;;;36.05;37.89
6347;BME280;3206;42.666;23.600;2022-08-03T12:08:07;95184.19;;;38.14;35.51
6347;BME280;3206;42.666;23.600;2022-08-03T12:10:35;95180.13;;;40.54;33.53
6347;BME280;3206;42.666;23.600;2022-08-03T12:13:03;95183.16;;;42.30;31.70
6347;BME280;3206;42.666;23.600;2022-08-03T12:15:33;95188.16;;;40.76;31.74
6347;BME280;3206;42.666;23.600;2022-08-03T12:18:03;95182.56;;;37.78;34.38
6347;BME280;3206;42.666;23.600;2022-08-03T12:20:37;95185.69;;;37.58;34.68
6347;BME280;3206;42.666;23.600;2022-08-03T12:23:05;95176.69;;;38.68;34.14
6347;BME280;3206;42.666;23.600;2022-08-03T12:25:33;95177.19;;;39.49;34.34
6347;BME280;3206;42.666;23.600;2022-08-03T12:28:11;95181.25;;;37.95;35.56
6347;BME280;3206;42.666;23.600;2022-08-03T12:30:41;95174.13;;;37.27;37.09
6347;BME280;3206;42.666;23.600;2022-08-03T12:33:18;95178.75;;;36.42;39.64
6347;BME280;3206;42.666;23.600;2022-08-03T12:35:51;95180.44;;;37.38;38.71
6347;BME280;3206;42.666;23.600;2022-08-03T12:38:27;95177.09;;;39.79;35.53
6347;BME280;3206;42.666;23.600;2022-08-03T12:40:56;95176.22;;;39.23;36.21
6347;BME280;3206;42.666;23.600;2022-08-03T12:43:23;95173.63;;;37.96;37.05
6347;BME280;3206;42.666;23.600;2022-08-03T12:45:50;95154.16;;;36.95;38.64
6347;BME280;3206;42.666;23.600;2022-08-03T12:48:18;95185.50;;;35.39;39.19
6347;BME280;3206;42.666;23.600;2022-08-03T12:50:45;95166.75;;;34.55;41.23
6347;BME280;3206;42.666;23.600;2022-08-03T12:53:12;95172.56;;;35.25;42.61
6347;BME280;3206;42.666;23.600;2022-08-03T12:56:00;95170.97;;;34.76;43.36
6347;BME280;3206;42.666;23.600;2022-08-03T12:58:31;95172.00;;;33.97;44.07
6347;BME280;3206;42.666;23.600;2022-08-03T13:00:58;95169.78;;;33.01;45.21
6347;BME280;3206;42.666;23.600;2022-08-03T13:03:26;95180.97;;;32.29;47.09
6347;BME280;3206;42.666;23.600;2022-08-03T13:05:53;95176.56;;;31.93;50.20
6347;BME280;3206;42.666;23.600;2022-08-03T13:08:22;95180.06;;;31.79;52.13
6347;BME280;3206;42.666;23.600;2022-08-03T13:10:50;95176.25;;;31.16;53.26
6347;BME280;3206;42.666;23.600;2022-08-03T13:13:17;95165.81;;;30.64;58.63
6347;BME280;3206;42.666;23.600;2022-08-03T13:15:44;95163.00;;;30.73;54.55
6347;BME280;3206;42.666;23.600;2022-08-03T13:18:11;95164.19;;;30.39;54.96
6347;BME280;3206;42.666;23.600;2022-08-03T13:20:41;95154.69;;;29.81;56.01